• Join FlightAware (Why Join?)
  • Login
  • US Flag 
12:03AM EDT


 

Airport Tracker/Info


-or-


 

Live Flight TrackerFlight Track Log ✈ N31KE ✈ 05-Sep-2013 ✈ KGSO - KCRW

Flight Track Log - Related Links

Times and Time Zones

All times are in EDT time to prevent confusion due to time zone crossing. See the N31KE flight status page for this flight to view local times or setup timezone preferences in your user account.

Time Position Orientation Groundspeed Altitude Reporting Facility
EDT Latitude Longitude Course Direction KTS MPH feet Rate Location/Type
07:05PM 36.3075 -80.1447 329° Northwest 97 112 4,600  Level Indianapolis Center
07:06PM 36.3300 -80.1617 329° Northwest 96 110 5,000 420 Climbing Indianapolis Center
07:07PM 36.3581 -80.1825 329° Northwest 98 113 5,500 360 Climbing Indianapolis Center
07:08PM 36.3811 -80.1969 333° Northwest 98 113 5,800 240 Climbing Indianapolis Center
07:09PM 36.4047 -80.2128 332° Northwest 98 113 6,100 300 Climbing Indianapolis Center
07:10PM 36.4322 -80.2331 329° Northwest 98 113 6,500 240 Climbing Indianapolis Center
07:11PM 36.4578 -80.2500 332° Northwest 101 116 6,700  Climbing Indianapolis Center
07:12PM 36.4853 -80.2669 334° Northwest 106 122 6,600 -60 Descending Indianapolis Center
07:13PM 36.5133 -80.2864 331° Northwest 111 128 6,600 -60 Level Indianapolis Center
07:14PM 36.5417 -80.3075 329° Northwest 124 143 6,500  Descending Atlanta Center
07:15PM 36.5717 -80.3319 327° Northwest 118 136 6,600  Climbing Atlanta Center
07:16PM 36.6014 -80.3486 336° Northwest 113 130 6,500 -120 Descending Atlanta Center
07:17PM 36.6311 -80.3681 332° Northwest 118 136 6,400  Descending Atlanta Center
07:18PM 36.6567 -80.3850 332° Northwest 124 143 6,500  Climbing Atlanta Center
07:19PM 36.6844 -80.4044 331° Northwest 119 137 6,400 -60 Descending Atlanta Center
07:20PM 36.7122 -80.4264 328° Northwest 119 137 6,400 60 Level Atlanta Center
07:21PM 36.7397 -80.4433 334° Northwest 119 137 6,600 60 Climbing Atlanta Center
07:22PM 36.7675 -80.4628 331° Northwest 114 131 6,600 -60 Level Atlanta Center
07:23PM 36.7950 -80.4822 330° Northwest 114 131 6,500  Descending Atlanta Center
07:24PM 36.8206 -80.4992 332° Northwest 109 125 6,700  Climbing Atlanta Center
07:25PM 36.8461 -80.5189 328° Northwest 109 125 6,500 -120 Descending Atlanta Center
07:26PM 36.8717 -80.5333 336° Northwest 109 125 6,500  Level Atlanta Center
07:27PM 36.8972 -80.5531 328° Northwest 109 125 6,600  Climbing Atlanta Center
07:28PM 36.9247 -80.5700 334° Northwest 109 125 6,500  Descending Atlanta Center
07:29PM 36.9503 -80.5894 329° Northwest 109 125 6,600  Climbing Atlanta Center
07:30PM 36.9822 -80.6117 331° Northwest 109 125 6,500 -60 Descending Atlanta Center
07:31PM 37.0078 -80.6314 328° Northwest 109 125 6,500  Level Atlanta Center
07:32PM 37.0353 -80.6483 334° Northwest 109 125 6,500 60 Level Atlanta Center
07:34PM 37.0792 -80.6761 333° Northwest 112 129 6,800 60 Climbing Indianapolis Center
07:35PM 37.1100 -80.6983 330° Northwest 111 128 6,700 -120 Descending Indianapolis Center
07:36PM 37.1369 -80.7183 329° Northwest 113 130 6,600 -120 Descending Indianapolis Center
07:37PM 37.1644 -80.7378 331° Northwest 115 132 6,500 -60 Descending Indianapolis Center
07:38PM 37.1908 -80.7544 333° Northwest 113 130 6,500  Level Indianapolis Center
07:39PM 37.2208 -80.7750 331° Northwest 108 124 6,600  Climbing Indianapolis Center
07:40PM 37.2461 -80.7936 330° Northwest 107 123 6,600 -120 Level Indianapolis Center
07:42PM 37.2813 -80.8181 331° Northwest  Level Estimated
07:42PM 37.3017 -80.8319 331° Northwest 106 122 6,400  Level Indianapolis Center
07:43PM 37.3267 -80.8517 328° Northwest 108 124 6,600 60 Climbing Indianapolis Center
07:44PM 37.3525 -80.8686 332° Northwest 108 124 6,600  Level Indianapolis Center
07:45PM 37.3783 -80.8867 331° Northwest 109 125 6,600  Level Indianapolis Center
07:46PM 37.4094 -80.9086 331° Northwest 108 124 6,700  Climbing Indianapolis Center
07:47PM 37.4361 -80.9275 331° Northwest 111 128 6,600 -60 Descending Indianapolis Center
07:49PM 37.4631 -80.9467 331° Northwest 113 130 6,600  Level Indianapolis Center
07:50PM 37.4953 -80.9692 331° Northwest 114 131 6,600  Level Indianapolis Center
07:51PM 37.5189 -80.9869 329° Northwest 105 121 6,600  Level Indianapolis Center
07:52PM 37.5467 -81.0053 332° Northwest 111 128 6,600  Level Indianapolis Center
07:53PM 37.5711 -81.0233 330° Northwest 107 123 6,600  Level Indianapolis Center
07:54PM 37.6022 -81.0442 332° Northwest 108 124 6,600  Level Indianapolis Center
07:55PM 37.6256 -81.0614 330° Northwest 102 117 6,600  Level Indianapolis Center
07:56PM 37.6508 -81.0789 331° Northwest 105 121 6,600 -60 Level Indianapolis Center
07:57PM 37.6803 -81.1000 330° Northwest 106 122 6,500  Descending Indianapolis Center
07:58PM 37.7056 -81.1169 332° Northwest 106 122 6,600 60 Climbing Indianapolis Center
07:59PM 37.7292 -81.1331 332° Northwest 100 115 6,700  Climbing Indianapolis Center
08:00PM 37.7544 -81.1517 330° Northwest 105 121 6,600 -120 Descending Indianapolis Center
08:01PM 37.7858 -81.1733 331° Northwest 110 127 6,500 -300 Descending Indianapolis Center
08:02PM 37.8128 -81.1939 329° Northwest 115 132 6,000 -540 Descending Indianapolis Center
08:03PM 37.8428 -81.2131 333° Northwest 125 144 5,400 -720 Descending Indianapolis Center
08:04PM 37.8753 -81.2350 332° Northwest 131 151 4,600 -480 Descending Indianapolis Center
08:05PM 37.9111 -81.2606 331° Northwest 125 144 4,500 -120 Descending Indianapolis Center
08:06PM 37.9367 -81.2797 329° Northwest 112 129 4,400  Descending Indianapolis Center
08:07PM 37.9672 -81.2886 347° North 111 128 4,500 60 Climbing Indianapolis Center
08:08PM 37.9969 -81.3011 342° North 112 129 4,600  Climbing Indianapolis Center
08:10PM 38.0582 -81.3476 329° Northwest  Level FlightAware Approximate
08:10PM 38.0556 -81.3200 329° Northwest 110 127 4,500  Level Indianapolis Center
08:11PM 38.0858 -81.3314 344° North 112 129 4,400 -240 Descending Indianapolis Center
08:12PM 38.1153 -81.3497 334° Northwest 115 132 4,100 -540 Descending Indianapolis Center
08:13PM 38.1533 -81.3792 329° Northwest 127 146 3,400 -540 Descending Indianapolis Center
08:14PM 38.1828 -81.4008 330° Northwest 126 145 3,100 -360 Descending Indianapolis Center
08:15PM 38.2133 -81.4214 332° Northwest 125 144 2,700 -300 Descending Indianapolis Center
08:16PM 38.2422 -81.4428 330° Northwest 122 140 2,500 -120 Descending Indianapolis Center
08:17PM 38.2681 -81.4636 328° Northwest 117 135 2,500  Level Indianapolis Center
08:18PM 38.2931 -81.4836 328° Northwest 111 128 2,500  Level Indianapolis Center
08:19PM 38.3181 -81.5058 325° Northwest 109 125 2,500 -240 Level Indianapolis Center
08:20PM 38.3411 -81.5300 321° Northwest 108 124 2,100 -360 Descending Indianapolis Center
08:21PM 38.3639 -81.5597 314° West 102 117 1,800 -300 Descending Indianapolis Center
08:22PM 38.3783 -81.5733 324° Northwest 84 97 1,600 -300 Descending Indianapolis Center
08:23PM 38.3900 -81.5856 321° Northwest 75 86 1,300 -300 Descending Indianapolis Center